createdAt,value
2018-08-20T00:02:14.344Z,44.00
2018-08-20T00:04:48.377Z,44.20
2018-08-20T00:07:18.770Z,42.70
2018-08-20T00:09:47.616Z,43.20
2018-08-20T00:12:18.621Z,42.70
2018-08-20T00:14:50.278Z,42.90
2018-08-20T00:17:19.163Z,43.10
2018-08-20T00:19:47.965Z,43.60
2018-08-20T00:22:17.588Z,43.70
2018-08-20T00:24:56.251Z,43.40
2018-08-20T00:27:26.783Z,44.10
2018-08-20T00:29:55.599Z,44.00
2018-08-20T00:32:25.299Z,44.10
2018-08-20T00:34:55.602Z,43.60
2018-08-20T00:37:24.388Z,44.20
2018-08-20T00:39:53.196Z,43.90
2018-08-20T00:42:22.051Z,44.60
2018-08-20T00:44:50.859Z,44.10
2018-08-20T00:47:19.655Z,44.00
2018-08-20T00:49:48.473Z,44.20
2018-08-20T00:52:17.270Z,44.20
2018-08-20T00:54:46.108Z,44.70
2018-08-20T00:57:15.636Z,44.00
2018-08-20T00:59:44.457Z,43.90
2018-08-20T01:02:13.331Z,44.40
2018-08-20T01:04:42.511Z,44.00
2018-08-20T01:07:11.321Z,44.50
2018-08-20T01:09:40.102Z,43.80
2018-08-20T01:12:08.947Z,44.40
2018-08-20T01:14:37.735Z,43.70
2018-08-20T01:17:06.572Z,43.70
2018-08-20T01:19:36.274Z,43.80
2018-08-20T01:22:05.106Z,43.90
2018-08-20T01:24:33.966Z,43.80
2018-08-20T01:27:03.572Z,43.70
2018-08-20T01:29:32.369Z,43.80
2018-08-20T01:32:01.171Z,44.00
2018-08-20T01:34:30.044Z,43.90
2018-08-20T01:36:58.837Z,44.10
2018-08-20T01:39:27.634Z,44.60
2018-08-20T01:41:56.678Z,43.90
2018-08-20T01:44:25.484Z,44.40
2018-08-20T01:46:54.279Z,44.40
2018-08-20T01:51:52.354Z,44.00
2018-08-20T01:54:21.171Z,44.20
2018-08-20T01:56:51.784Z,44.60
2018-08-20T01:59:20.569Z,44.20
2018-08-20T02:01:49.400Z,44.00
2018-08-20T02:04:18.229Z,44.60
2018-08-20T02:06:47.123Z,44.70
2018-08-20T02:09:15.993Z,44.30
2018-08-20T02:11:45.666Z,44.80
2018-08-20T02:16:42.886Z,44.40
2018-08-20T02:19:13.316Z,44.30
2018-08-20T02:21:42.222Z,44.20
2018-08-20T02:24:11.085Z,44.80
2018-08-20T02:26:43.925Z,45.00
2018-08-20T02:29:12.741Z,45.10
2018-08-20T02:31:41.524Z,44.40
2018-08-20T02:34:11.090Z,45.00
2018-08-20T02:36:39.916Z,45.00
2018-08-20T02:39:11.356Z,45.00
2018-08-20T02:41:40.954Z,45.00
2018-08-20T02:44:10.717Z,45.00
2018-08-20T02:46:47.368Z,45.00
2018-08-20T02:49:16.831Z,45.00
2018-08-20T02:51:46.398Z,45.00
2018-08-20T02:54:16.138Z,44.40
2018-08-20T02:56:45.101Z,44.30
2018-08-20T02:59:14.613Z,44.80
2018-08-20T03:01:44.296Z,44.90
2018-08-20T03:04:13.125Z,45.10
2018-08-20T03:06:41.946Z,44.70
2018-08-20T03:09:13.854Z,45.30
2018-08-20T03:11:42.675Z,44.70
2018-08-20T03:16:40.522Z,44.60
2018-08-20T03:19:10.283Z,45.10
2018-08-20T03:21:39.122Z,45.10
2018-08-20T03:24:08.188Z,45.20
2018-08-20T03:26:36.978Z,44.70
2018-08-20T03:29:05.793Z,45.30
2018-08-20T03:31:34.614Z,45.10
2018-08-20T03:34:03.447Z,45.70
2018-08-20T03:36:32.298Z,45.70
2018-08-20T03:39:01.922Z,45.70
2018-08-20T03:41:30.781Z,45.40
2018-08-20T03:43:59.561Z,46.00
2018-08-20T03:46:28.410Z,46.00
2018-08-20T03:48:57.202Z,45.50
2018-08-20T03:51:26.079Z,46.10
2018-08-20T03:53:54.963Z,46.00
2018-08-20T03:56:23.758Z,45.50
2018-08-20T03:58:52.606Z,45.70
2018-08-20T04:01:22.344Z,45.90
2018-08-20T04:03:51.133Z,45.90
2018-08-20T04:06:19.936Z,46.50
2018-08-20T04:08:50.342Z,44.70
2018-08-20T04:11:19.180Z,44.60
2018-08-20T04:13:47.961Z,45.10
2018-08-20T04:16:16.951Z,44.60
2018-08-20T04:18:45.749Z,44.70
2018-08-20T04:21:15.518Z,45.20
2018-08-20T04:23:45.125Z,45.50
2018-08-20T04:26:13.957Z,45.90
2018-08-20T04:28:42.730Z,45.70
2018-08-20T04:31:20.434Z,44.80
2018-08-20T04:33:49.227Z,45.00
2018-08-20T04:36:18.057Z,45.60
2018-08-20T04:38:47.534Z,45.60
2018-08-20T04:41:16.383Z,45.10
2018-08-20T04:43:45.254Z,45.70
2018-08-20T04:46:14.130Z,44.20
2018-08-20T04:48:42.902Z,43.60
2018-08-20T04:51:11.808Z,43.90
2018-08-20T04:53:41.577Z,44.00
2018-08-20T04:56:10.414Z,44.00
2018-08-20T04:58:39.212Z,43.30
2018-08-20T05:03:36.877Z,43.80
2018-08-20T05:06:05.765Z,44.40
2018-08-20T05:08:36.020Z,44.30
2018-08-20T05:11:04.825Z,45.00
2018-08-20T05:13:33.653Z,44.00
2018-08-20T05:16:02.509Z,42.60
2018-08-20T05:18:31.325Z,43.20
2018-08-20T05:21:00.122Z,43.90
2018-08-20T05:23:29.549Z,43.50
2018-08-20T05:25:58.657Z,41.50
2018-08-20T05:28:27.438Z,42.80
2018-08-20T05:30:56.257Z,43.40
2018-08-20T05:33:25.085Z,42.60
2018-08-20T05:35:53.882Z,43.00
2018-08-20T05:40:51.086Z,42.30
2018-08-20T05:43:19.882Z,42.20
2018-08-20T05:45:50.752Z,43.40
2018-08-20T05:48:19.626Z,41.40
2018-08-20T05:50:48.458Z,41.40
2018-08-20T05:53:17.287Z,40.80
2018-08-20T05:55:46.069Z,41.70
2018-08-20T05:58:15.019Z,40.20
2018-08-20T06:00:45.147Z,42.50
2018-08-20T06:03:13.983Z,39.80
2018-08-20T06:05:42.841Z,39.20
2018-08-20T06:08:11.646Z,39.40
2018-08-20T06:10:40.473Z,38.30
2018-08-20T06:13:09.333Z,36.20
2018-08-20T06:15:38.273Z,36.00
2018-08-20T06:18:07.186Z,35.00
2018-08-20T06:20:36.041Z,35.40
2018-08-20T06:23:04.860Z,33.80
2018-08-20T06:25:33.690Z,34.40
2018-08-20T06:28:02.570Z,33.50
2018-08-20T06:30:31.403Z,33.70
2018-08-20T06:33:00.217Z,33.40
2018-08-20T06:35:29.029Z,31.20
2018-08-20T06:37:58.721Z,31.60
2018-08-20T06:40:27.564Z,30.70
2018-08-20T06:42:56.389Z,30.00
2018-08-20T06:45:25.254Z,30.60
2018-08-20T06:47:54.062Z,30.40
2018-08-20T06:50:22.842Z,31.20
2018-08-20T06:52:52.390Z,29.50
2018-08-20T06:55:21.200Z,29.60
2018-08-20T06:57:50.047Z,30.00
2018-08-20T07:00:18.876Z,27.50
2018-08-20T07:02:47.668Z,26.40
2018-08-20T07:05:16.567Z,26.20
2018-08-20T07:07:47.095Z,26.60
2018-08-20T07:10:15.991Z,27.10
2018-08-20T07:12:44.832Z,25.60
2018-08-20T07:15:16.063Z,25.10
2018-08-20T07:17:45.229Z,24.90
2018-08-20T07:20:15.618Z,24.00
2018-08-20T07:22:44.936Z,23.30
2018-08-20T07:25:13.725Z,22.30
2018-08-20T07:27:42.514Z,21.60
2018-08-20T07:30:11.870Z,19.90
2018-08-20T07:32:40.687Z,20.50
2018-08-20T07:35:09.549Z,19.10
2018-08-20T07:37:38.411Z,18.60
2018-08-20T07:40:08.245Z,17.40
2018-08-20T07:42:37.083Z,15.50
2018-08-20T07:45:06.741Z,15.80
2018-08-20T07:47:35.586Z,15.30
2018-08-20T07:50:04.858Z,14.70
2018-08-20T07:52:33.703Z,13.70
2018-08-20T07:55:02.520Z,12.20
2018-08-20T07:57:31.382Z,12.70
2018-08-20T08:00:00.237Z,11.90
2018-08-20T08:02:29.070Z,12.10
2018-08-20T08:04:57.876Z,11.20
2018-08-20T08:07:26.773Z,10.00
2018-08-20T08:09:55.579Z,9.40
2018-08-20T08:12:24.460Z,8.70
2018-08-20T08:14:53.298Z,9.30
2018-08-20T08:17:22.098Z,9.20
2018-08-20T08:19:51.062Z,8.50
2018-08-20T08:22:20.441Z,8.10
2018-08-20T08:24:49.261Z,8.50
2018-08-20T08:27:18.044Z,8.60
2018-08-20T08:29:47.472Z,8.10
2018-08-20T08:32:16.312Z,7.70
2018-08-20T08:34:45.146Z,8.20
2018-08-20T08:37:15.572Z,7.60
2018-08-20T08:39:44.401Z,8.60
2018-08-20T08:42:13.201Z,8.20
2018-08-20T08:44:42.797Z,8.70
2018-08-20T08:47:11.633Z,6.90
2018-08-20T08:49:40.478Z,7.70
2018-08-20T08:52:09.347Z,7.40
2018-08-20T08:54:38.318Z,7.90
2018-08-20T08:57:07.341Z,7.70
2018-08-20T08:59:37.179Z,6.20
2018-08-20T09:02:06.129Z,6.40
2018-08-20T09:04:34.915Z,6.20
2018-08-20T09:07:05.467Z,6.20
2018-08-20T09:09:34.287Z,6.10
2018-08-20T09:12:03.160Z,6.90
2018-08-20T09:14:32.667Z,6.70
2018-08-20T09:17:01.514Z,6.60
2018-08-20T09:19:30.346Z,7.00
2018-08-20T09:22:00.745Z,6.90
2018-08-20T09:24:29.545Z,7.40
2018-08-20T09:26:58.371Z,7.00
2018-08-20T09:29:27.239Z,6.20
2018-08-20T09:31:56.083Z,6.00
2018-08-20T09:34:25.016Z,6.10
2018-08-20T09:36:53.868Z,6.40
2018-08-20T09:39:22.693Z,5.90
2018-08-20T09:41:51.507Z,6.50
2018-08-20T09:46:49.351Z,6.10
2018-08-20T09:49:18.141Z,6.60
2018-08-20T09:51:46.977Z,7.10
2018-08-20T09:54:15.759Z,8.00
2018-08-20T09:56:44.572Z,8.60
2018-08-20T09:59:14.889Z,10.00
2018-08-20T10:01:43.686Z,11.70
2018-08-20T10:04:12.469Z,11.90
2018-08-20T10:06:42.403Z,12.40
2018-08-20T10:09:11.199Z,14.20
2018-08-20T10:11:39.984Z,13.40
2018-08-20T10:14:08.809Z,14.50
2018-08-20T10:16:37.663Z,15.00
2018-08-20T10:19:06.510Z,15.60
2018-08-20T10:21:36.164Z,16.50
2018-08-20T10:24:05.020Z,16.80
2018-08-20T10:26:33.845Z,17.90
2018-08-20T10:29:02.680Z,19.60
2018-08-20T10:31:31.491Z,20.60
2018-08-20T10:34:00.333Z,21.10
2018-08-20T10:36:29.905Z,22.10
2018-08-20T10:38:58.884Z,22.40
2018-08-20T10:41:27.725Z,22.80
2018-08-20T10:43:58.830Z,23.10
2018-08-20T10:46:28.067Z,23.50
2018-08-20T10:48:57.828Z,23.30
2018-08-20T10:51:31.354Z,23.80
2018-08-20T10:54:00.254Z,24.00
2018-08-20T10:56:29.253Z,23.60
2018-08-20T10:58:58.804Z,24.00
2018-08-20T11:01:27.633Z,24.30
2018-08-20T11:03:57.283Z,24.70
2018-08-20T11:06:28.492Z,25.20
2018-08-20T11:08:57.961Z,24.20
2018-08-20T11:11:26.823Z,24.60
2018-08-20T11:13:55.693Z,23.70
2018-08-20T11:16:24.451Z,23.80
2018-08-20T11:18:53.424Z,24.40
2018-08-20T11:21:22.975Z,25.00
2018-08-20T11:23:51.766Z,25.60
2018-08-20T11:26:20.571Z,26.90
2018-08-20T11:28:49.578Z,28.60
2018-08-20T11:31:18.394Z,25.60
2018-08-20T11:33:47.221Z,25.70
2018-08-20T11:36:16.031Z,27.80
2018-08-20T11:38:45.074Z,31.40
2018-08-20T11:41:13.948Z,30.60
2018-08-20T11:43:43.646Z,29.30
2018-08-20T11:46:12.487Z,30.30
2018-08-20T11:48:41.294Z,30.30
2018-08-20T11:51:10.171Z,31.20
2018-08-20T11:53:39.138Z,31.70
2018-08-20T11:56:07.960Z,31.00
2018-08-20T11:58:36.782Z,31.80
2018-08-20T12:01:05.606Z,32.90
2018-08-20T12:03:34.371Z,33.40
2018-08-20T12:06:03.192Z,34.00
2018-08-20T12:08:31.984Z,33.90
2018-08-20T12:11:00.877Z,33.70
2018-08-20T12:13:32.238Z,33.90
2018-08-20T12:16:01.061Z,34.50
2018-08-20T12:18:29.917Z,34.40
2018-08-20T12:20:59.531Z,33.90
2018-08-20T12:23:28.327Z,33.50
2018-08-20T12:25:57.151Z,34.00
2018-08-20T12:28:26.746Z,34.10
2018-08-20T12:30:55.572Z,34.00
2018-08-20T12:33:24.684Z,34.20
2018-08-20T12:35:54.937Z,34.10
2018-08-20T12:38:23.709Z,34.00
2018-08-20T12:40:52.533Z,34.00
2018-08-20T12:43:21.397Z,34.50
2018-08-20T12:45:51.649Z,35.00
2018-08-20T12:48:20.543Z,35.80
2018-08-20T12:50:49.350Z,36.20
2018-08-20T12:53:18.156Z,35.60
2018-08-20T12:55:46.953Z,36.30
2018-08-20T12:58:15.796Z,36.00
2018-08-20T13:00:44.666Z,36.30
2018-08-20T13:03:13.455Z,36.50
2018-08-20T13:05:42.338Z,36.70
2018-08-20T13:08:11.103Z,36.50
2018-08-20T13:13:08.300Z,36.50
2018-08-20T13:18:05.579Z,36.30
2018-08-20T13:20:34.393Z,36.40
2018-08-20T13:23:03.242Z,37.10
2018-08-20T13:25:32.019Z,37.10
2018-08-20T13:28:00.932Z,37.90
2018-08-20T13:30:29.814Z,37.00
2018-08-20T13:32:58.647Z,37.60
2018-08-20T13:35:27.480Z,36.90
2018-08-20T13:37:56.344Z,37.50
2018-08-20T13:40:25.146Z,36.60
2018-08-20T13:42:54.602Z,36.50
2018-08-20T13:45:23.398Z,36.40
2018-08-20T13:47:52.250Z,37.00
2018-08-20T13:52:49.602Z,35.90
2018-08-20T13:55:18.429Z,36.50
2018-08-20T13:57:49.885Z,36.70
2018-08-20T14:00:20.010Z,37.00
2018-08-20T14:02:48.869Z,37.10
2018-08-20T14:05:18.554Z,37.60
2018-08-20T14:07:47.815Z,38.10
2018-08-20T14:10:16.706Z,37.70
2018-08-20T14:12:45.771Z,37.70
2018-08-20T14:15:15.181Z,37.40
2018-08-20T14:17:44.401Z,37.70
2018-08-20T14:20:17.002Z,38.20
2018-08-20T14:22:46.314Z,38.40
2018-08-20T14:27:46.131Z,39.50
2018-08-20T14:30:16.126Z,39.60
2018-08-20T14:32:45.333Z,39.60
2018-08-20T14:35:14.193Z,39.70
2018-08-20T14:37:42.986Z,39.70
2018-08-20T14:40:14.665Z,39.70
2018-08-20T14:45:13.958Z,39.90
2018-08-20T14:47:43.858Z,40.00
2018-08-20T14:50:15.707Z,40.30
2018-08-20T14:52:44.650Z,40.20
2018-08-20T14:55:13.894Z,40.30
2018-08-20T14:57:43.107Z,41.00
2018-08-20T15:00:13.741Z,40.60
2018-08-20T15:02:42.593Z,40.40
2018-08-20T15:05:11.487Z,40.20
2018-08-20T15:07:40.350Z,40.40
2018-08-20T15:12:38.295Z,38.90
2018-08-20T15:15:08.437Z,39.00
2018-08-20T15:25:02.974Z,37.30
2018-08-20T15:27:31.776Z,37.10
2018-08-20T15:30:00.653Z,35.60
2018-08-20T15:32:29.507Z,37.20
2018-08-20T15:34:58.434Z,38.20
2018-08-20T15:39:55.720Z,38.30
2018-08-20T15:42:25.293Z,39.20
2018-08-20T15:44:54.090Z,39.40
2018-08-20T15:47:22.959Z,39.10
2018-08-20T15:49:53.652Z,38.80
2018-08-20T15:52:22.489Z,38.70
2018-08-20T15:54:51.309Z,39.00
2018-08-20T15:57:22.191Z,39.70
2018-08-20T15:59:51.051Z,39.60
2018-08-20T16:02:19.864Z,40.10
2018-08-20T16:04:50.672Z,40.60
2018-08-20T16:07:19.867Z,40.70
2018-08-20T16:09:48.768Z,41.20
2018-08-20T16:12:18.030Z,41.40
2018-08-20T16:14:46.862Z,41.60
2018-08-20T16:17:15.680Z,42.00
2018-08-20T16:19:44.570Z,42.20
2018-08-20T16:24:41.809Z,42.90
2018-08-20T16:27:12.244Z,43.60
2018-08-20T16:29:41.044Z,44.00
2018-08-20T16:32:10.547Z,44.20
2018-08-20T16:34:40.905Z,44.50
2018-08-20T16:37:09.854Z,44.70
2018-08-20T16:39:39.045Z,45.30
2018-08-20T16:42:08.898Z,45.60
2018-08-20T16:44:37.725Z,46.00
2018-08-20T16:47:06.651Z,46.10
2018-08-20T16:49:35.546Z,46.50
2018-08-20T16:54:33.019Z,47.00
2018-08-20T16:57:01.969Z,47.20
2018-08-20T16:59:30.834Z,47.30
2018-08-20T17:01:59.749Z,47.30
2018-08-20T17:04:46.461Z,47.50
2018-08-20T17:07:15.328Z,47.90
2018-08-20T17:12:13.638Z,48.40
2018-08-20T17:14:42.495Z,48.30
2018-08-20T17:17:11.306Z,48.50
2018-08-20T17:19:40.898Z,48.90
2018-08-20T17:22:09.699Z,48.80
2018-08-20T17:24:38.557Z,48.90
2018-08-20T17:27:07.530Z,49.00
2018-08-20T17:32:06.824Z,49.10
2018-08-20T17:34:41.108Z,49.10
2018-08-20T17:37:10.307Z,49.20
2018-08-20T17:42:14.197Z,49.10
2018-08-20T17:44:43.008Z,49.30
2018-08-20T17:47:16.351Z,49.00
2018-08-20T17:49:45.158Z,49.00
2018-08-20T17:52:14.122Z,49.10
2018-08-20T17:54:42.993Z,49.10
2018-08-20T17:57:11.901Z,49.10
2018-08-20T17:59:40.815Z,49.00
2018-08-20T18:02:13.872Z,49.10
2018-08-20T18:04:42.752Z,49.10
2018-08-20T18:07:12.394Z,49.10
2018-08-20T18:09:41.287Z,49.20
2018-08-20T18:12:10.333Z,49.20
2018-08-20T18:14:39.219Z,49.40
2018-08-20T18:17:10.100Z,49.40
2018-08-20T18:29:33.555Z,49.20
2018-08-20T18:32:03.571Z,49.40
2018-08-20T18:34:32.450Z,49.50
2018-08-20T18:37:04.176Z,49.50
2018-08-20T18:39:33.004Z,49.30
2018-08-20T18:42:12.848Z,49.30
2018-08-20T18:44:41.733Z,49.60
2018-08-20T18:47:12.467Z,49.70
2018-08-20T18:50:00.036Z,49.70
2018-08-20T18:52:30.204Z,49.80
2018-08-20T18:54:59.857Z,49.80
2018-08-20T18:57:31.659Z,49.80
2018-08-20T19:00:03.523Z,49.70
2018-08-20T19:07:35.925Z,49.60
2018-08-20T19:10:07.275Z,49.70
2018-08-20T19:12:36.113Z,49.70
2018-08-20T19:17:38.922Z,49.60
2018-08-20T19:20:07.800Z,49.60
2018-08-20T19:22:37.418Z,49.40
2018-08-20T19:25:06.268Z,49.50
2018-08-20T19:27:35.115Z,49.50
2018-08-20T19:30:13.373Z,49.60
2018-08-20T19:32:42.240Z,49.80
2018-08-20T19:35:11.180Z,49.80
2018-08-20T19:37:40.202Z,49.70
2018-08-20T19:40:09.606Z,49.60
2018-08-20T19:42:38.556Z,49.60
2018-08-20T19:45:10.611Z,49.50
2018-08-20T19:47:39.520Z,49.70
2018-08-20T19:50:09.958Z,49.80
2018-08-20T19:52:39.905Z,49.70
2018-08-20T19:55:11.247Z,49.50
2018-08-20T19:57:40.156Z,49.40
2018-08-20T20:02:43.484Z,49.20
2018-08-20T20:07:55.145Z,49.10
2018-08-20T20:10:24.011Z,49.10
2018-08-20T20:12:54.885Z,49.30
2018-08-20T20:15:24.699Z,49.40
2018-08-20T20:17:54.615Z,49.40
2018-08-20T20:25:20.399Z,49.10
2018-08-20T20:27:49.289Z,49.10
2018-08-20T20:30:18.176Z,49.30
2018-08-20T20:32:47.040Z,49.20
2018-08-20T20:35:15.904Z,49.30
2018-08-20T20:37:44.810Z,49.40
2018-08-20T20:40:14.265Z,49.20
2018-08-20T20:42:43.066Z,49.00
2018-08-20T20:45:11.957Z,49.10
2018-08-20T20:47:40.779Z,49.10
2018-08-20T20:50:09.757Z,49.00
2018-08-20T20:52:38.972Z,49.10
2018-08-20T20:55:07.842Z,49.30
2018-08-20T20:57:36.701Z,48.90
2018-08-20T21:00:06.851Z,48.90
2018-08-20T21:02:35.729Z,48.80
2018-08-20T21:05:06.527Z,48.80
2018-08-20T21:07:36.310Z,48.50
2018-08-20T21:10:06.198Z,48.60
2018-08-20T21:12:35.113Z,48.60
2018-08-20T21:15:04.155Z,48.60
2018-08-20T21:17:34.967Z,48.60
2018-08-20T21:20:04.195Z,48.80
2018-08-20T21:22:35.483Z,48.90
2018-08-20T21:25:05.912Z,48.90
2018-08-20T21:30:07.016Z,48.90
2018-08-20T21:32:35.915Z,48.80
2018-08-20T21:37:33.975Z,48.60
2018-08-20T21:45:06.521Z,48.50
2018-08-20T21:47:35.421Z,48.70
2018-08-20T21:52:41.721Z,48.70
2018-08-20T21:55:10.611Z,48.40
2018-08-20T21:57:43.826Z,48.70
2018-08-20T22:00:16.640Z,48.80
2018-08-20T22:02:50.803Z,48.60
2018-08-20T22:05:20.437Z,48.50
2018-08-20T22:07:49.773Z,48.40
2018-08-20T22:12:47.206Z,48.40
2018-08-20T22:15:16.092Z,48.40
2018-08-20T22:17:45.763Z,48.30
2018-08-20T22:20:14.705Z,48.40
2018-08-20T22:22:43.614Z,48.50
2018-08-20T22:25:15.591Z,48.80
2018-08-20T22:27:49.631Z,48.90
2018-08-20T22:30:20.224Z,49.00
2018-08-20T22:35:22.664Z,49.30
2018-08-20T22:37:52.048Z,49.50
2018-08-20T22:40:21.558Z,49.60
2018-08-20T22:42:57.333Z,49.70
2018-08-20T22:45:26.158Z,49.80
2018-08-20T22:47:55.479Z,49.80
2018-08-20T22:50:24.393Z,49.80
2018-08-20T22:52:53.224Z,49.90
2018-08-20T23:00:27.803Z,50.00
2018-08-20T23:02:57.488Z,50.00
2018-08-20T23:05:32.015Z,49.80
2018-08-20T23:08:07.533Z,49.80
2018-08-20T23:10:40.202Z,49.70
2018-08-20T23:13:09.101Z,49.80
2018-08-20T23:18:07.455Z,49.80
2018-08-20T23:20:37.265Z,49.80
2018-08-20T23:23:06.125Z,49.50
2018-08-20T23:25:35.437Z,49.30
2018-08-20T23:28:04.599Z,49.20
2018-08-20T23:30:33.455Z,49.00
2018-08-20T23:33:02.395Z,49.00
2018-08-20T23:37:59.654Z,49.20
2018-08-20T23:40:28.554Z,49.30
2018-08-20T23:42:57.426Z,49.50
2018-08-20T23:45:26.283Z,49.50
2018-08-20T23:50:23.635Z,49.80
2018-08-20T23:52:52.499Z,50.00
2018-08-20T23:55:22.052Z,50.00
